Time;durP1;ratioP1;P1;durP2;ratioP2;P2;SDS_P1;SDS_P2;PMS_P1;PMS_P2;Temp;Humidity;BMP_temperature;BMP_pressure;BME280_temperature;BME280_humidity;BME280_pressure;Samples;Min_cycle;Max_cycle;Signal;HPM_P1;HPM_P2
2022/04/29 00:02:25;;;;;;;19.70;6.63;;;;;;;4.76;100.00;102164.56;7393521;19;20391;-52
2022/04/29 00:04:54;;;;;;;16.87;5.77;;;;;;;4.64;100.00;102170.38;7386865;19;20407;-57
2022/04/29 00:07:24;;;;;;;12.50;6.37;;;;;;;4.51;100.00;102163.28;7392975;19;20384;-55
2022/04/29 00:09:53;;;;;;;18.93;7.00;;;;;;;4.77;100.00;102157.00;7388951;19;20481;-52
2022/04/29 00:12:23;;;;;;;14.40;7.10;;;;;;;4.87;100.00;102158.72;7393184;19;20918;-53
2022/04/29 00:14:55;;;;;;;16.30;5.63;;;;;;;5.08;100.00;102161.38;7388255;19;20766;-55
2022/04/29 00:17:24;;;;;;;17.73;5.90;;;;;;;4.83;100.00;102162.66;7392413;19;20901;-52
2022/04/29 00:19:54;;;;;;;19.97;7.87;;;;;;;4.74;100.00;102177.22;7392930;19;20447;-59
2022/04/29 00:22:24;;;;;;;11.83;6.20;;;;;;;4.85;100.00;102162.81;7393040;19;20400;-55
2022/04/29 00:24:53;;;;;;;15.03;6.17;;;;;;;4.60;100.00;102168.31;7387608;19;20413;-60
2022/04/29 00:27:23;;;;;;;11.20;5.90;;;;;;;4.48;100.00;102172.34;7393291;19;20395;-52
2022/04/29 00:29:55;;;;;;;17.90;5.93;;;;;;;4.14;100.00;102173.66;7389418;19;20415;-48
2022/04/29 00:32:24;;;;;;;16.50;6.40;;;;;;;4.09;100.00;102162.13;7393169;19;20380;-56
2022/04/29 00:34:54;;;;;;;22.90;6.90;;;;;;;4.51;100.00;102147.06;7387928;19;20402;-57
2022/04/29 00:37:24;;;;;;;20.37;6.70;;;;;;;4.37;100.00;102139.06;7393039;19;20400;-57
2022/04/29 00:39:53;;;;;;;12.73;6.23;;;;;;;4.44;100.00;102126.06;7388937;19;20751;-53
2022/04/29 00:42:24;;;;;;;15.67;7.00;;;;;;;4.34;100.00;102128.56;7398876;19;20405;-54
2022/04/29 00:44:56;;;;;;;14.40;6.53;;;;;;;4.16;100.00;102118.47;7394561;19;20804;-52
2022/04/29 00:47:25;;;;;;;14.87;6.33;;;;;;;4.08;100.00;102114.34;7400228;19;20383;-51
2022/04/29 00:49:55;;;;;;;17.47;5.43;;;;;;;4.54;100.00;102098.75;7396172;19;20753;-56
2022/04/29 00:52:26;;;;;;;20.23;6.63;;;;;;;4.50;100.00;102094.16;7397220;19;20388;-53
2022/04/29 00:55:07;;;;;;;12.83;6.30;;;;;;;4.68;100.00;102092.28;7393580;19;20422;-55
2022/04/29 00:57:44;;;;;;;14.73;6.60;;;;;;;4.65;100.00;102092.91;7404291;19;20378;-56
2022/04/29 01:00:18;;;;;;;14.63;6.30;;;;;;;4.46;100.00;102093.88;7398075;19;20396;-60
2022/04/29 01:02:59;;;;;;;12.23;5.80;;;;;;;4.56;100.00;102081.91;7400138;19;20491;-52
2022/04/29 01:05:31;;;;;;;19.40;6.70;;;;;;;4.46;100.00;102078.53;7396312;19;20439;-55
2022/04/29 01:08:01;;;;;;;11.27;5.80;;;;;;;4.48;100.00;102073.56;7395480;19;20401;-58
2022/04/29 01:10:31;;;;;;;16.77;7.20;;;;;;;4.72;100.00;102068.78;7399103;19;20747;-52
2022/04/29 01:13:02;;;;;;;16.07;6.90;;;;;;;4.70;100.00;102072.84;7395521;19;20382;-54
2022/04/29 01:15:35;;;;;;;15.07;7.27;;;;;;;4.49;100.00;102077.00;7396865;19;20418;-55
2022/04/29 01:18:08;;;;;;;19.33;6.67;;;;;;;4.77;100.00;102069.19;7396801;19;20933;-52
2022/04/29 01:20:39;;;;;;;15.00;6.40;;;;;;;4.59;100.00;102069.38;7399549;19;20387;-52
2022/04/29 01:23:13;;;;;;;20.70;7.13;;;;;;;4.78;100.00;102066.78;7395040;19;20440;-58
2022/04/29 01:25:43;;;;;;;21.50;7.97;;;;;;;4.67;100.00;102065.81;7396868;19;20422;-54
2022/04/29 01:28:12;;;;;;;19.77;7.83;;;;;;;4.71;100.00;102069.53;7395051;19;20414;-54
2022/04/29 01:30:42;;;;;;;15.90;6.90;;;;;;;4.66;100.00;102076.81;7399816;19;20387;-51
2022/04/29 01:33:12;;;;;;;16.07;7.77;;;;;;;4.78;100.00;102061.66;7394379;19;20404;-52
2022/04/29 01:35:42;;;;;;;18.60;6.57;;;;;;;4.79;100.00;102067.66;7396355;19;20415;-55
2022/04/29 01:38:14;;;;;;;19.23;6.63;;;;;;;4.73;100.00;102062.91;7394256;19;20707;-55
2022/04/29 01:40:43;;;;;;;12.20;6.73;;;;;;;4.76;100.00;102063.16;7398894;19;20383;-50
2022/04/29 01:43:13;;;;;;;14.80;7.63;;;;;;;4.49;100.00;102065.13;7392730;19;20394;-55
2022/04/29 01:45:42;;;;;;;19.40;6.60;;;;;;;4.52;100.00;102069.59;7396199;19;20415;-54
2022/04/29 01:48:12;;;;;;;16.77;6.60;;;;;;;4.58;100.00;102070.16;7393962;19;20379;-55
2022/04/29 01:50:41;;;;;;;18.87;8.53;;;;;;;4.00;100.00;102080.44;7398516;19;20391;-53
2022/04/29 01:53:13;;;;;;;14.83;7.50;;;;;;;3.91;100.00;102077.09;7391012;19;20407;-55
2022/04/29 01:55:43;;;;;;;19.30;7.57;;;;;;;4.25;100.00;102068.97;7395783;19;20422;-57
2022/04/29 01:58:12;;;;;;;15.93;6.87;;;;;;;4.23;100.00;102063.72;7394189;19;20402;-51
2022/04/29 02:00:42;;;;;;;13.50;6.60;;;;;;;4.29;100.00;102058.25;7398253;19;20395;-49
2022/04/29 02:03:11;;;;;;;23.40;7.17;;;;;;;4.32;100.00;102064.53;7394038;19;20403;-56
2022/04/29 02:05:41;;;;;;;18.77;7.33;;;;;;;3.99;100.00;102057.34;7395099;19;20415;-53
2022/04/29 02:08:13;;;;;;;16.87;7.50;;;;;;;3.75;100.00;102062.03;7393466;19;20407;-58
2022/04/29 02:10:43;;;;;;;15.00;7.33;;;;;;;3.89;100.00;102040.28;7398991;19;20380;-57
2022/04/29 02:13:13;;;;;;;14.30;7.53;;;;;;;3.86;100.00;102029.81;7391292;19;20391;-50
2022/04/29 02:15:42;;;;;;;20.63;7.80;;;;;;;3.67;100.00;102012.84;7395195;19;20402;-54
2022/04/29 02:18:12;;;;;;;19.40;7.50;;;;;;;3.83;100.00;101994.69;7393241;19;20403;-55
2022/04/29 02:20:41;;;;;;;21.03;8.57;;;;;;;4.13;100.00;101992.13;7397553;19;20392;-59
2022/04/29 02:23:10;;;;;;;12.40;7.23;;;;;;;4.60;100.00;101979.13;7393125;19;20399;-56
2022/04/29 02:25:42;;;;;;;13.80;8.00;;;;;;;4.28;100.00;101983.28;7395057;19;20475;-52
2022/04/29 02:28:12;;;;;;;15.53;7.00;;;;;;;4.44;100.00;101984.59;7393315;19;20383;-52
2022/04/29 02:30:41;;;;;;;17.80;9.17;;;;;;;4.43;100.00;101991.38;7397026;19;20380;-50
2022/04/29 02:33:11;;;;;;;17.97;7.87;;;;;;;4.35;100.00;101994.91;7391048;19;20459;-50
2022/04/29 02:35:40;;;;;;;13.17;7.50;;;;;;;4.20;100.00;102002.13;7394779;19;20394;-55
2022/04/29 02:38:10;;;;;;;23.53;9.80;;;;;;;3.78;100.00;102003.56;7392751;19;20395;-55
2022/04/29 02:40:39;;;;;;;19.93;7.97;;;;;;;3.56;100.00;102001.66;7397232;19;20402;-55
2022/04/29 02:43:11;;;;;;;18.00;8.33;;;;;;;3.65;100.00;102005.03;7391052;19;20427;-57
2022/04/29 02:45:41;;;;;;;20.37;7.97;;;;;;;3.70;100.00;101997.78;7394517;19;20438;-52
2022/04/29 02:48:11;;;;;;;22.23;8.70;;;;;;;3.56;100.00;101999.13;7392502;19;20407;-56
2022/04/29 02:50:40;;;;;;;24.57;9.50;;;;;;;3.53;100.00;101986.06;7396695;19;20370;-49
2022/04/29 02:53:10;;;;;;;18.43;9.10;;;;;;;3.71;100.00;101973.16;7390784;19;20411;-55
2022/04/29 02:55:40;;;;;;;18.53;8.13;;;;;;;3.34;100.00;101975.88;7393991;19;20403;-55
2022/04/29 02:58:12;;;;;;;18.67;8.70;;;;;;;3.21;100.00;101958.53;7392352;19;20394;-56
2022/04/29 03:00:42;;;;;;;22.23;8.63;;;;;;;3.54;100.00;101929.16;7396335;19;20387;-54
2022/04/29 03:03:11;;;;;;;18.20;7.57;;;;;;;4.01;100.00;101907.69;7391447;19;20956;-58
2022/04/29 03:05:41;;;;;;;18.57;8.77;;;;;;;4.04;100.00;101892.59;7394756;19;20925;-56
2022/04/29 03:08:11;;;;;;;21.03;7.57;;;;;;;4.04;100.00;101902.81;7391288;19;20415;-60
2022/04/29 03:10:40;;;;;;;22.43;8.40;;;;;;;4.09;100.00;101891.34;7395935;19;20380;-50
2022/04/29 03:13:12;;;;;;;22.93;8.73;;;;;;;4.23;100.00;101896.75;7390519;19;20395;-54
2022/04/29 03:15:42;;;;;;;20.47;7.97;;;;;;;4.23;100.00;101900.22;7393568;19;20449;-55
2022/04/29 03:18:23;;;;;;;19.60;7.43;;;;;;;4.36;100.00;101897.03;7394601;19;20753;-50
2022/04/29 03:20:56;;;;;;;18.57;7.90;;;;;;;4.55;100.00;101901.16;7395517;19;20757;-50
2022/04/29 03:23:26;;;;;;;21.83;8.37;;;;;;;4.16;100.00;101913.22;7393156;19;20422;-49
2022/04/29 03:25:56;;;;;;;19.83;7.97;;;;;;;4.28;100.00;101905.72;7393965;19;20428;-52
2022/04/29 03:28:28;;;;;;;20.57;8.47;;;;;;;4.39;100.00;101906.63;7390822;19;20415;-50
2022/04/29 03:30:58;;;;;;;19.97;7.83;;;;;;;4.48;100.00;101906.50;7395290;19;20414;-52
2022/04/29 03:33:27;;;;;;;15.67;6.93;;;;;;;4.80;100.00;101911.78;7389525;19;20418;-54
2022/04/29 03:35:57;;;;;;;16.53;7.80;;;;;;;4.37;100.00;101934.63;7393544;19;20420;-53
2022/04/29 03:38:27;;;;;;;37.97;18.13;;;;;;;4.17;100.00;101936.31;7390069;19;20403;-53
2022/04/29 03:40:56;;;;;;;27.63;12.37;;;;;;;4.35;100.00;101936.13;7395012;19;20384;-57
2022/04/29 03:43:28;;;;;;;51.00;23.50;;;;;;;3.97;100.00;101937.16;7388763;19;20418;-53
2022/04/29 03:45:58;;;;;;;16.13;8.10;;;;;;;3.75;100.00;101932.72;7393091;19;20418;-49
2022/04/29 03:48:28;;;;;;;25.73;12.97;;;;;;;3.74;100.00;101927.50;7389843;19;20942;-53
2022/04/29 03:51:17;;;;;;;16.53;8.67;;;;;;;3.57;100.00;101929.44;7394172;19;20388;-56
2022/04/29 03:53:47;;;;;;;24.40;11.93;;;;;;;3.56;100.00;101921.63;7389019;19;20419;-57
2022/04/29 03:56:17;;;;;;;18.77;9.47;;;;;;;3.37;100.00;101926.00;7392452;19;20778;-56
2022/04/29 03:58:49;;;;;;;26.53;11.80;;;;;;;3.47;100.00;101917.50;7390431;19;20378;-54
2022/04/29 04:01:18;;;;;;;27.60;9.83;;;;;;;3.46;100.00;101904.63;7394054;19;20371;-51
2022/04/29 04:03:48;;;;;;;16.57;8.80;;;;;;;3.38;100.00;101897.16;7389370;19;20447;-53
2022/04/29 04:08:59;;;;;;;25.87;9.60;;;;;;;3.31;100.00;101888.81;7390011;19;20419;-55
2022/04/29 04:11:29;;;;;;;21.13;8.97;;;;;;;3.37;100.00;101880.06;7393774;19;20887;-53
2022/04/29 04:14:01;;;;;;;20.23;9.27;;;;;;;3.35;100.00;101876.47;7388411;19;20435;-59
2022/04/29 04:16:30;;;;;;;18.90;9.40;;;;;;;3.32;100.00;101876.22;7391511;19;20383;-51
2022/04/29 04:19:00;;;;;;;16.77;9.27;;;;;;;3.32;100.00;101870.19;7391417;19;20968;-58
2022/04/29 04:21:29;;;;;;;22.03;9.13;;;;;;;3.37;100.00;101869.88;7393827;19;20409;-56
2022/04/29 04:23:59;;;;;;;17.27;8.40;;;;;;;3.36;100.00;101867.19;7388631;19;20415;-47
2022/04/29 04:26:28;;;;;;;18.37;9.07;;;;;;;3.27;100.00;101867.25;7393437;19;20377;-55
2022/04/29 04:29:00;;;;;;;14.80;8.73;;;;;;;3.31;100.00;101858.22;7389625;19;20477;-54
2022/04/29 04:31:30;;;;;;;18.20;8.37;;;;;;;3.27;100.00;101854.50;7392977;19;20396;-47
2022/04/29 04:34:49;;;;;;;22.80;10.20;;;;;;;3.30;100.00;101852.22;7387748;19;20402;-59
2022/04/29 04:36:52;;;;;;;15.20;8.10;;;;;;;3.38;100.00;101848.69;7393263;19;20912;-55
2022/04/29 04:39:22;;;;;;;18.90;9.27;;;;;;;3.47;100.00;101853.72;7388316;19;20757;-55
2022/04/29 04:41:52;;;;;;;16.03;8.43;;;;;;;3.45;100.00;101851.78;7393209;19;20363;-52
2022/04/29 04:44:24;;;;;;;21.13;8.10;;;;;;;3.50;100.00;101850.53;7385735;19;20960;-46
2022/04/29 04:46:54;;;;;;;23.33;8.27;;;;;;;3.46;100.00;101853.56;7393055;19;20390;-50
2022/04/29 04:49:24;;;;;;;18.73;9.20;;;;;;;3.26;100.00;101857.81;7388424;19;20402;-49
2022/04/29 04:51:53;;;;;;;27.37;9.70;;;;;;;3.18;100.00;101871.53;7392954;19;20379;-53
2022/04/29 04:54:30;;;;;;;22.53;8.80;;;;;;;3.09;100.00;101862.28;7386808;19;20421;-51
2022/04/29 04:56:59;;;;;;;20.33;9.13;;;;;;;3.24;100.00;101852.56;7392644;19;20383;-56
2022/04/29 04:59:31;;;;;;;23.17;8.60;;;;;;;3.21;100.00;101846.28;7387869;19;20394;-54
2022/04/29 05:02:02;;;;;;;16.80;8.77;;;;;;;3.25;100.00;101833.06;7392785;19;20386;-55
2022/04/29 05:04:31;;;;;;;19.17;9.40;;;;;;;3.23;100.00;101832.91;7386923;19;20940;-49
2022/04/29 05:07:01;;;;;;;18.47;9.70;;;;;;;3.20;100.00;101829.22;7392240;19;20367;-55
2022/04/29 05:09:30;;;;;;;23.20;9.47;;;;;;;3.20;100.00;101819.91;7388287;19;20425;-48
2022/04/29 05:12:00;;;;;;;19.57;8.73;;;;;;;3.24;100.00;101815.97;7392217;19;20379;-50
2022/04/29 05:14:38;;;;;;;20.97;9.40;;;;;;;3.23;100.00;101809.97;7384120;19;20402;-54
2022/04/29 05:17:08;;;;;;;20.93;10.07;;;;;;;3.21;100.00;101813.13;7392231;19;20392;-54
2022/04/29 05:19:37;;;;;;;20.73;9.90;;;;;;;3.23;100.00;101811.63;7387455;19;20405;-52
2022/04/29 05:22:07;;;;;;;24.60;10.03;;;;;;;3.34;100.00;101805.81;7392026;19;20371;-53
2022/04/29 05:24:37;;;;;;;26.10;10.40;;;;;;;3.33;100.00;101805.69;7388700;19;20480;-54
2022/04/29 05:27:07;;;;;;;22.47;9.77;;;;;;;3.34;100.00;101805.81;7394298;19;20379;-55
2022/04/29 05:29:39;;;;;;;24.10;9.80;;;;;;;3.43;100.00;101802.28;7395123;19;20398;-52
2022/04/29 05:32:10;;;;;;;18.40;8.63;;;;;;;3.51;100.00;101801.28;7399266;19;20390;-51
2022/04/29 05:34:40;;;;;;;15.30;8.90;;;;;;;3.58;100.00;101802.72;7393338;19;20414;-51
2022/04/29 05:37:09;;;;;;;19.20;8.53;;;;;;;3.62;100.00;101808.22;7399083;19;20359;-50
2022/04/29 05:42:23;;;;;;;19.20;8.30;;;;;;;3.74;100.00;101820.28;7398805;19;20375;-55
2022/04/29 05:44:55;;;;;;;19.20;8.53;;;;;;;3.77;100.00;101815.41;7391907;19;20398;-55
2022/04/29 05:47:25;;;;;;;20.80;8.77;;;;;;;3.83;100.00;101821.06;7397729;19;20371;-53
2022/04/29 05:49:55;;;;;;;17.70;9.00;;;;;;;3.92;100.00;101826.06;7393333;19;20805;-54
2022/04/29 05:52:24;;;;;;;19.47;8.53;;;;;;;3.98;100.00;101825.69;7397772;19;20388;-51
2022/04/29 05:54:54;;;;;;;21.23;9.10;;;;;;;3.92;100.00;101837.19;7390473;19;20405;-51
2022/04/29 05:57:23;;;;;;;17.60;8.23;;;;;;;3.89;100.00;101842.00;7397664;19;20371;-58
2022/04/29 05:59:55;;;;;;;12.67;7.47;;;;;;;3.85;100.00;101849.28;7393534;19;20411;-55
2022/04/29 06:02:25;;;;;;;22.97;9.10;;;;;;;3.94;100.00;101855.16;7395394;19;20398;-53
2022/04/29 06:04:54;;;;;;;28.97;7.90;;;;;;;4.06;100.00;101857.91;7391911;19;20424;-57
2022/04/29 06:07:24;;;;;;;15.33;7.87;;;;;;;4.09;100.00;101862.38;7395090;19;20387;-52
2022/04/29 06:09:53;;;;;;;15.33;8.53;;;;;;;4.17;100.00;101869.91;7395899;19;20439;-49
2022/04/29 06:12:23;;;;;;;16.07;7.67;;;;;;;4.36;100.00;101874.03;7395763;19;20371;-52
2022/04/29 06:14:55;;;;;;;16.23;7.80;;;;;;;4.42;100.00;101876.22;7389322;19;20415;-52
2022/04/29 06:17:24;;;;;;;20.10;8.30;;;;;;;4.44;100.00;101883.25;7395284;19;20391;-53
2022/04/29 06:19:54;;;;;;;25.33;8.40;;;;;;;4.58;100.00;101886.09;7392555;19;20435;-53
2022/04/29 06:22:23;;;;;;;19.27;7.03;;;;;;;4.67;100.00;101889.41;7395472;19;20390;-50
2022/04/29 06:24:52;;;;;;;17.10;7.13;;;;;;;4.83;100.00;101900.94;7391519;19;20947;-51
2022/04/29 06:27:38;;;;;;;20.43;7.63;;;;;;;4.98;100.00;101911.53;7397260;19;20807;-52
2022/04/29 06:30:11;;;;;;;17.60;6.23;;;;;;;5.10;100.00;101933.03;7389738;19;20446;-54
2022/04/29 06:32:41;;;;;;;21.67;9.13;;;;;;;5.24;100.00;101944.38;7397820;19;20394;-49
2022/04/29 06:35:12;;;;;;;28.37;9.13;;;;;;;5.34;100.00;101963.06;7393983;19;20476;-48
2022/04/29 06:37:41;;;;;;;19.73;7.60;;;;;;;5.43;100.00;101996.22;7396572;19;20390;-50
2022/04/29 06:40:12;;;;;;;16.40;7.80;;;;;;;5.48;100.00;102005.16;7390709;19;20407;-53
2022/04/29 06:42:47;;;;;;;29.90;10.10;;;;;;;5.54;100.00;102047.50;7396189;19;20394;-57
2022/04/29 06:45:19;;;;;;;31.50;9.70;;;;;;;5.60;100.00;102064.16;7394171;19;20962;-56
2022/04/29 06:47:48;;;;;;;15.70;6.60;;;;;;;5.78;100.00;102090.38;7396972;19;20358;-56
2022/04/29 06:50:18;;;;;;;13.73;6.13;;;;;;;5.96;100.00;102106.41;7396100;19;20407;-52
2022/04/29 06:52:47;;;;;;;10.03;4.70;;;;;;;6.09;100.00;102126.25;7396305;19;20459;-47
2022/04/29 06:55:16;;;;;;;15.13;5.50;;;;;;;6.13;100.00;102151.38;7392749;19;20427;-56
2022/04/29 06:57:46;;;;;;;18.33;5.60;;;;;;;6.26;100.00;102160.94;7395808;19;20737;-56
2022/04/29 07:00:19;;;;;;;17.70;7.10;;;;;;;6.35;100.00;102174.53;7395290;19;20473;-54
2022/04/29 07:02:49;;;;;;;12.20;4.93;;;;;;;6.52;100.00;102180.16;7391894;19;20721;-58
2022/04/29 07:05:19;;;;;;;8.93;5.07;;;;;;;6.58;100.00;102203.72;7396992;19;20449;-57
2022/04/29 07:07:49;;;;;;;11.00;5.30;;;;;;;6.70;100.00;102205.47;7390784;19;20721;-52
2022/04/29 07:10:19;;;;;;;16.57;4.70;;;;;;;6.83;100.00;102212.50;7399115;19;20965;-55
2022/04/29 07:12:49;;;;;;;11.90;4.60;;;;;;;6.93;100.00;102221.81;7391374;19;20382;-56
2022/04/29 07:15:21;;;;;;;10.80;5.30;;;;;;;6.99;100.00;102227.44;7395388;19;20426;-55
2022/04/29 07:17:50;;;;;;;13.17;5.30;;;;;;;7.04;100.00;102228.72;7390714;19;20740;-56
2022/04/29 07:20:20;;;;;;;11.10;4.37;;;;;;;7.19;100.00;102235.84;7394683;19;20394;-57
2022/04/29 07:22:50;;;;;;;10.50;4.57;;;;;;;7.11;100.00;102256.66;7390842;19;20393;-52
2022/04/29 07:25:19;;;;;;;23.47;8.60;;;;;;;7.33;100.00;102258.34;7392797;19;20485;-50
2022/04/29 07:27:49;;;;;;;9.10;3.97;;;;;;;7.66;100.00;102248.03;7390914;19;20384;-57
2022/04/29 07:30:22;;;;;;;13.43;4.70;;;;;;;7.60;100.00;102275.81;7398466;19;20413;-58
2022/04/29 07:32:51;;;;;;;15.63;6.57;;;;;;;7.60;100.00;102279.31;7390890;19;20391;-47
2022/04/29 07:43:29;;;;;;;11.10;3.80;;;;;;;8.00;100.00;102306.28;7388054;19;20938;-56
2022/04/29 07:46:03;;;;;;;9.47;3.97;;;;;;;8.09;100.00;102319.84;7389216;19;20420;-47
2022/04/29 07:48:33;;;;;;;8.87;4.37;;;;;;;8.20;100.00;102329.28;7387860;19;20510;-55
2022/04/29 07:51:02;;;;;;;15.47;6.77;;;;;;;8.39;100.00;102325.53;7390171;19;20384;-56
2022/04/29 07:53:31;;;;;;;14.10;5.07;;;;;;;8.50;100.00;102340.13;7384624;19;20415;-53
2022/04/29 07:56:01;;;;;;;10.43;4.43;;;;;;;8.38;100.00;102355.50;7389359;19;20427;-52
2022/04/29 07:58:31;;;;;;;10.40;4.30;;;;;;;8.43;100.00;102357.53;7386590;19;20760;-53
2022/04/29 08:01:04;;;;;;;9.03;3.87;;;;;;;8.46;100.00;102358.66;7391319;19;20387;-52
2022/04/29 08:03:38;;;;;;;6.13;3.10;;;;;;;8.54;100.00;102361.84;7385199;19;20478;-52
2022/04/29 08:06:09;;;;;;;15.60;3.40;;;;;;;8.63;100.00;102353.94;7388724;19;20493;-50
2022/04/29 08:08:40;;;;;;;9.00;3.40;;;;;;;8.49;100.00;102366.63;7385553;19;20949;-52
2022/04/29 08:11:10;;;;;;;11.07;3.70;;;;;;;8.54;100.00;102381.53;7391902;19;20395;-57
2022/04/29 08:13:40;;;;;;;8.60;2.70;;;;;;;8.59;100.00;102385.34;7382613;19;20450;-52
2022/04/29 08:16:33;;;;;;;8.90;4.03;;;;;;;8.58;100.00;102392.19;7389249;19;20388;-53
2022/04/29 08:19:03;;;;;;;7.80;3.57;;;;;;;8.72;100.00;102382.91;7387002;19;20415;-58
2022/04/29 08:21:33;;;;;;;7.67;2.70;;;;;;;8.72;100.00;102392.34;7390683;19;20384;-59
2022/04/29 08:24:02;;;;;;;7.63;2.23;;;;;;;8.93;100.00;102393.06;7386407;19;20415;-50
2022/04/29 08:26:32;;;;;;;6.47;2.60;;;;;;;8.89;100.00;102409.03;7391487;19;20418;-53
2022/04/29 08:29:01;;;;;;;5.07;2.50;;;;;;;8.89;100.00;102403.91;7387030;19;20426;-48
2022/04/29 08:31:34;;;;;;;8.87;3.43;;;;;;;8.98;100.00;102390.81;7391235;19;20391;-50
2022/04/29 08:34:04;;;;;;;8.63;2.87;;;;;;;8.88;100.00;102391.81;7386385;19;20423;-57
2022/04/29 08:36:34;;;;;;;9.87;2.60;;;;;;;9.04;100.00;102394.72;7390060;19;21002;-53
2022/04/29 08:39:03;;;;;;;5.60;3.20;;;;;;;9.13;100.00;102385.91;7386507;19;20417;-57
2022/04/29 08:41:35;;;;;;;7.13;3.17;;;;;;;9.44;100.00;102399.34;7390823;19;20807;-54
2022/04/29 08:44:06;;;;;;;7.07;2.57;;;;;;;9.10;100.00;102396.88;7386029;19;20422;-52
2022/04/29 08:46:38;;;;;;;5.80;3.13;;;;;;;8.90;100.00;102396.31;7392200;19;20396;-54
2022/04/29 08:49:08;;;;;;;14.10;3.07;;;;;;;8.84;100.00;102406.13;7387877;19;20434;-56
2022/04/29 08:51:38;;;;;;;10.30;3.77;;;;;;;9.25;100.00;102397.13;7392325;19;20391;-55
2022/04/29 08:54:08;;;;;;;7.37;4.40;;;;;;;9.48;100.00;102404.72;7387172;19;20956;-53
2022/04/29 08:59:40;;;;;;;16.10;7.50;;;;;;;9.96;100.00;102402.97;7385809;19;20481;-48
2022/04/29 09:02:15;;;;;;;37.63;13.33;;;;;;;9.53;100.00;102404.28;7398864;19;20392;-49
2022/04/29 09:04:45;;;;;;;46.47;25.87;;;;;;;10.04;100.00;102396.66;7393639;19;20793;-54
2022/04/29 09:07:15;;;;;;;15.57;7.10;;;;;;;10.18;100.00;102413.13;7401096;19;20395;-52
2022/04/29 09:09:45;;;;;;;28.27;13.67;;;;;;;10.02;100.00;102406.00;7395052;19;20752;-57
2022/04/29 09:12:19;;;;;;;17.70;8.57;;;;;;;10.26;100.00;102405.91;7399719;19;20395;-59
2022/04/29 09:14:49;;;;;;;20.03;6.43;;;;;;;9.92;100.00;102413.84;7394817;19;20463;-51
2022/04/29 09:17:30;;;;;;;25.80;11.83;;;;;;;10.11;100.00;102410.91;7403684;19;20467;-56
2022/04/29 09:20:00;;;;;;;18.40;6.70;;;;;;;10.59;100.00;102418.47;7395126;19;20421;-54
2022/04/29 09:22:34;;;;;;;107.90;45.83;;;;;;;10.65;100.00;102417.22;7399075;19;20413;-54
2022/04/29 09:25:04;;;;;;;14.30;5.33;;;;;;;10.66;100.00;102420.69;7393066;19;20415;-53
2022/04/29 09:27:55;;;;;;;20.20;9.43;;;;;;;10.69;100.00;102417.41;7398938;19;20392;-51
2022/04/29 09:30:35;;;;;;;11.83;4.90;;;;;;;10.46;100.00;102427.94;7398447;19;20411;-57
2022/04/29 09:33:08;;;;;;;8.00;3.30;;;;;;;10.47;100.00;102434.03;7396371;19;20458;-54
2022/04/29 09:35:42;;;;;;;18.20;8.03;;;;;;;10.58;100.00;102434.75;7395584;19;20949;-58
2022/04/29 09:40:54;;;;;;;35.07;14.63;;;;;;;10.47;100.00;102421.13;7398779;19;20383;-56
2022/04/29 09:43:38;;;;;;;12.80;6.73;;;;;;;10.91;100.00;102423.25;7391627;19;20411;-48
2022/04/29 09:46:12;;;;;;;13.23;5.77;;;;;;;10.93;100.00;102420.78;7395930;19;20430;-53
2022/04/29 09:49:02;;;;;;;12.03;3.23;;;;;;;10.97;100.00;102408.94;7394341;19;20438;-55
2022/04/29 09:51:49;;;;;;;10.40;3.37;;;;;;;10.92;100.00;102421.56;7398230;19;20368;-51
2022/04/29 09:54:25;;;;;;;69.83;29.07;;;;;;;10.75;100.00;102412.66;7392468;19;20411;-55
2022/04/29 09:57:06;;;;;;;11.37;4.00;;;;;;;10.87;100.00;102412.59;7396442;19;20391;-54
2022/04/29 09:59:37;;;;;;;15.07;7.10;;;;;;;10.81;100.00;102420.81;7393510;19;20424;-51
2022/04/29 10:02:08;;;;;;;11.60;5.70;;;;;;;10.71;100.00;102415.84;7397990;19;20381;-55
2022/04/29 10:04:42;;;;;;;10.57;3.93;;;;;;;10.44;100.00;102410.56;7392126;19;20417;-54
2022/04/29 10:07:14;;;;;;;13.07;5.03;;;;;;;10.82;100.00;102413.97;7399520;19;20397;-55
2022/04/29 10:09:47;;;;;;;7.40;3.50;;;;;;;11.10;100.00;102420.97;7391575;19;20781;-57
2022/04/29 10:12:18;;;;;;;9.83;5.00;;;;;;;11.15;100.00;102417.91;7397941;19;20703;-49
2022/04/29 10:14:49;;;;;;;8.77;2.63;;;;;;;11.11;100.00;102418.50;7389658;19;20412;-52
2022/04/29 10:22:52;;;;;;;16.00;7.23;;;;;;;11.48;100.00;102426.09;7393025;19;20398;-53
2022/04/29 10:25:23;;;;;;;9.80;4.97;;;;;;;11.45;100.00;102420.69;7393634;19;20431;-52
2022/04/29 10:27:53;;;;;;;58.20;21.07;;;;;;;11.53;100.00;102428.06;7393241;19;20387;-56
2022/04/29 10:30:30;;;;;;;9.70;3.17;;;;;;;11.56;100.00;102425.66;7396357;19;20394;-52
2022/04/29 10:33:05;;;;;;;10.97;5.43;;;;;;;11.52;100.00;102421.09;7392886;19;20403;-55
2022/04/29 10:36:09;;;;;;;11.10;4.57;;;;;;;11.59;100.00;102429.34;7394118;19;20433;-55
2022/04/29 10:38:40;;;;;;;11.63;3.43;;;;;;;11.64;100.00;102426.19;7388850;19;20760;-56
2022/04/29 10:41:15;;;;;;;16.33;8.07;;;;;;;11.79;100.00;102421.09;7396847;19;20397;-54
2022/04/29 10:44:06;;;;;;;9.70;4.33;;;;;;;11.30;100.00;102420.63;7391288;19;20414;-56
2022/04/29 10:46:39;;;;;;;34.60;16.77;;;;;;;11.70;100.00;102419.69;7396756;19;20397;-56
2022/04/29 10:49:26;;;;;;;9.00;3.80;;;;;;;11.72;100.00;102418.13;7392402;19;20413;-56
2022/04/29 10:51:59;;;;;;;25.73;11.73;;;;;;;11.78;100.00;102414.13;7396293;19;20918;-57
2022/04/29 10:54:45;;;;;;;7.20;3.40;;;;;;;12.11;100.00;102409.31;7389964;19;21015;-55
2022/04/29 10:57:17;;;;;;;10.90;4.60;;;;;;;12.10;100.00;102407.53;7394861;19;20906;-55
2022/04/29 10:59:57;;;;;;;6.57;3.20;;;;;;;11.91;100.00;102423.53;7390588;19;20424;-57
2022/04/29 11:02:28;;;;;;;14.23;3.30;;;;;;;11.99;100.00;102411.97;7395640;19;20467;-56
2022/04/29 11:04:59;;;;;;;7.37;3.33;;;;;;;12.14;100.00;102409.47;7390229;19;20413;-57
2022/04/29 11:07:46;;;;;;;13.10;3.40;;;;;;;12.10;100.00;102407.53;7397410;19;20398;-55
2022/04/29 11:10:18;;;;;;;17.00;6.77;;;;;;;12.21;100.00;102403.88;7395221;19;20443;-53
2022/04/29 11:13:03;;;;;;;13.27;5.63;;;;;;;12.27;100.00;102406.84;7395814;19;20473;-55
2022/04/29 11:15:44;;;;;;;5.50;2.80;;;;;;;12.43;100.00;102397.44;7394085;19;20424;-57
2022/04/29 11:18:23;;;;;;;8.57;3.27;;;;;;;12.15;100.00;102399.22;7392918;19;20957;-54
2022/04/29 11:20:56;;;;;;;6.13;2.50;;;;;;;12.11;100.00;102398.97;7395743;19;20387;-53
2022/04/29 11:26:15;;;;;;;19.87;7.90;;;;;;;11.95;100.00;102397.09;7392483;19;20421;-55
2022/04/29 11:28:45;;;;;;;15.63;5.20;;;;;;;12.09;100.00;102395.38;7390631;19;20416;-55
2022/04/29 11:31:14;;;;;;;73.27;28.07;;;;;;;12.45;100.00;102394.94;7395018;19;20395;-51
2022/04/29 11:33:44;;;;;;;7.23;2.50;;;;;;;12.27;100.00;102391.31;7389853;19;20478;-51
2022/04/29 11:36:15;;;;;;;7.90;4.57;;;;;;;12.68;100.00;102381.66;7395378;19;20505;-57
2022/04/29 11:38:49;;;;;;;60.47;23.00;;;;;;;12.72;100.00;102393.09;7390085;19;20432;-53
2022/04/29 11:41:19;;;;;;;7.17;3.30;;;;;;;12.55;100.00;102385.22;7394505;19;20466;-60
2022/04/29 11:43:50;;;;;;;53.90;20.40;;;;;;;12.59;100.00;102373.34;7387677;19;20505;-52
2022/04/29 11:46:20;;;;;;;12.33;3.90;;;;;;;12.85;100.00;102381.75;7392252;19;20407;-55
2022/04/29 11:48:55;;;;;;;23.23;8.00;;;;;;;12.79;100.00;102373.63;7393587;19;20397;-51
2022/04/29 11:51:24;;;;;;;15.83;6.90;;;;;;;12.42;100.00;102385.31;7392952;19;20393;-54
2022/04/29 11:53:59;;;;;;;5.90;2.90;;;;;;;12.44;99.60;102383.69;7382665;19;20407;-53
2022/04/29 11:56:36;;;;;;;65.67;33.83;;;;;;;12.69;100.00;102377.38;7393671;19;20387;-54
2022/04/29 11:59:06;;;;;;;5.47;2.57;;;;;;;12.36;100.00;102374.59;7351843;19;20442;-58
2022/04/29 12:01:36;;;;;;;9.80;5.30;;;;;;;12.46;100.00;102376.91;7393685;19;20400;-53
2022/04/29 12:04:07;;;;;;;6.77;2.70;;;;;;;12.38;100.00;102370.38;7376450;19;20496;-56
2022/04/29 12:06:38;;;;;;;18.43;9.57;;;;;;;12.56;100.00;102375.75;7394057;19;20381;-56